KEWN/EWN METAR and TAF weather

Enter ICAO airport designator
Station Type Date Time Source
KEWN METAR 2022/01/23 11:54 UTC NOAA

KEWN 231154Z 00000KT 8SM CLR M06/M07 A3013 RMK AO2 SLP202 T10611072 11039 21067 56007


Station Type Date Time Source
KEWN Decoded METAR 2022/01/23 11:54 UTC NOAA

New Bern, Craven County Regional Airport, NC, United States (KEWN) 35-04-03N 077-02-50W 3M
Jan 23, 2022 - 06:54 AM EST / 2022.01.23 1154 UTC
Wind: Calm:0
Visibility: 8 mile(s):0
Sky conditions: clear
Temperature: 21.0 F (-6.1 C)
Dew Point: 19.0 F (-7.2 C)
Relative Humidity: 91%
Pressure (altimeter): 30.13 in. Hg (1020 hPa)
Pressure tendency: 0.02 inches (0.7 hPa) lower than three hours ago
ob: KEWN 231154Z 00000KT 8SM CLR M06/M07 A3013 RMK AO2 SLP202 T10611072 11039 21067 56007
cycle: 12

Station Type Date Time Source
KEWN TAF 2022/01/23 12:24 UTC NOAA

TAF KEWN 231122Z 2312/2412 00000KT P6SM FEW250
FM231500 25004KT P6SM FEW250

Example: see airport list